Time;durP1;ratioP1;P1;durP2;ratioP2;P2;SDS_P1;SDS_P2;PMS_P1;PMS_P2;Temp;Humidity;BMP_temperature;BMP_pressure;BME280_temperature;BME280_humidity;BME280_pressure;Samples;Min_cycle;Max_cycle;Signal;HPM_P1;HPM_P2
2021/03/14 00:01:46;;;;;;;;;;;;;;;;;;5076243;28;19924;-77
2021/03/14 00:04:12;;;;;;;;;;;;;;;;;;5076069;28;20378;-76
2021/03/14 00:06:39;;;;;;;;;;;;;;;;;;5076044;28;19924;-77
2021/03/14 00:09:05;;;;;;;;;;;;;;;;;;5076605;28;19925;-77
2021/03/14 00:11:32;;;;;;;;;;;;;;;;;;5076266;28;19932;-76
2021/03/14 00:13:59;;;;;;;;;;;;;;;;;;5075727;28;19977;-77
2021/03/14 00:16:25;;;;;;;;;;;;;;;;;;5075895;28;19931;-76
2021/03/14 00:18:52;;;;;;;;;;;;;;;;;;5076053;28;19935;-77
2021/03/14 00:21:19;;;;;;;;;;;;;;;;;;5076002;28;20275;-76
2021/03/14 00:23:50;;;;;;;;;;;;;;;;;;5075593;28;19968;-76
2021/03/14 00:26:19;;;;;;;;;;;;;;;;;;5075911;28;20337;-76
2021/03/14 00:28:46;;;;;;;;;;;;;;;;;;5075738;28;19928;-77
2021/03/14 00:31:13;;;;;;;;;;;;;;;;;;5075294;28;19931;-77
2021/03/14 00:33:39;;;;;;;;;;;;;;;;;;5075402;28;19978;-77
2021/03/14 00:36:06;;;;;;;;;;;;;;;;;;5075905;28;19924;-77
2021/03/14 00:38:33;;;;;;;;;;;;;;;;;;5076584;28;19986;-77
2021/03/14 00:40:59;;;;;;;;;;;;;;;;;;5075794;28;19925;-77
2021/03/14 00:43:26;;;;;;;;;;;;;;;;;;5075251;28;19924;-76
2021/03/14 00:45:52;;;;;;;;;;;;;;;;;;5075294;28;20370;-77
2021/03/14 00:48:19;;;;;;;;;;;;;;;;;;5075719;28;19924;-77
2021/03/14 00:50:46;;;;;;;;;;;;;;;;;;5075529;28;19924;-77
2021/03/14 00:53:13;;;;;;;;;;;;;;;;;;5074824;28;19929;-76
2021/03/14 00:55:39;;;;;;;;;;;;;;;;;;5074707;28;19924;-76
2021/03/14 00:58:06;;;;;;;;;;;;;;;;;;5074825;28;20293;-77
2021/03/14 01:00:35;;;;;;;;;;;;;;;;;;5075046;28;20325;-76
2021/03/14 01:03:04;;;;;;;;;;;;;;;;;;5075037;28;19924;-77
2021/03/14 01:05:30;;;;;;;;;;;;;;;;;;5057453;28;19924;-76
2021/03/14 01:07:57;;;;;;;;;;;;;;;;;;5075358;28;19978;-76
2021/03/14 01:10:24;;;;;;;;;;;;;;;;;;5075088;28;19925;-77
2021/03/14 01:12:50;;;;;;;;;;;;;;;;;;5074439;28;19925;-77
2021/03/14 01:15:17;;;;;;;;;;;;;;;;;;5077504;28;19970;-76
2021/03/14 01:17:46;;;;;;;;;;;;;;;;;;5078613;28;19924;-75
2021/03/14 01:20:13;;;;;;;;;;;;;;;;;;5059915;28;20362;-77
2021/03/14 01:22:41;;;;;;;;;;;;;;;;;;5076472;28;19924;-76
2021/03/14 01:25:07;;;;;;;;;;;;;;;;;;5076063;28;19925;-77
2021/03/14 01:27:34;;;;;;;;;;;;;;;;;;5077541;28;19929;-78
2021/03/14 01:30:01;;;;;;;;;;;;;;;;;;5076350;28;19951;-76
2021/03/14 01:32:29;;;;;;;;;;;;;;;;;;5073886;28;20230;-77
2021/03/14 01:34:57;;;;;;;;;;;;;;;;;;5076885;28;19931;-76
2021/03/14 01:37:24;;;;;;;;;;;;;;;;;;5078269;28;19970;-77
2021/03/14 01:39:51;;;;;;;;;;;;;;;;;;5077623;28;19970;-76
2021/03/14 01:44:58;;;;;;;;;;;;;;;;;;5078234;28;19970;-76
2021/03/14 01:47:25;;;;;;;;;;;;;;;;;;5077703;28;20393;-76
2021/03/14 01:49:52;;;;;;;;;;;;;;;;;;5075943;28;19989;-76
2021/03/14 01:52:18;;;;;;;;;;;;;;;;;;5076045;28;19924;-77
2021/03/14 01:54:45;;;;;;;;;;;;;;;;;;5077387;28;19935;-76
2021/03/14 01:57:15;;;;;;;;;;;;;;;;;;5080220;28;19924;-76
2021/03/14 01:59:45;;;;;;;;;;;;;;;;;;5080032;28;19924;-76
2021/03/14 02:02:11;;;;;;;;;;;;;;;;;;5078099;28;19925;-76
2021/03/14 02:04:38;;;;;;;;;;;;;;;;;;5078264;28;19925;-76
2021/03/14 02:07:04;;;;;;;;;;;;;;;;;;5082024;28;19973;-76
2021/03/14 02:09:33;;;;;;;;;;;;;;;;;;5077078;28;19932;-75
2021/03/14 02:11:59;;;;;;;;;;;;;;;;;;5077451;28;19925;-76
2021/03/14 02:14:26;;;;;;;;;;;;;;;;;;5075857;28;19928;-77
2021/03/14 02:16:52;;;;;;;;;;;;;;;;;;5078368;28;19931;-77
2021/03/14 02:19:20;;;;;;;;;;;;;;;;;;5078177;28;19932;-77
2021/03/14 02:21:47;;;;;;;;;;;;;;;;;;5078383;28;19924;-77
2021/03/14 02:24:13;;;;;;;;;;;;;;;;;;5075616;28;19931;-76
2021/03/14 02:26:40;;;;;;;;;;;;;;;;;;5076392;28;19924;-77
2021/03/14 02:29:08;;;;;;;;;;;;;;;;;;5075913;28;19933;-77
2021/03/14 02:31:35;;;;;;;;;;;;;;;;;;5075635;28;19936;-77
2021/03/14 02:34:01;;;;;;;;;;;;;;;;;;5076511;28;20016;-77
2021/03/14 02:36:28;;;;;;;;;;;;;;;;;;5058232;28;19947;-77
2021/03/14 02:38:55;;;;;;;;;;;;;;;;;;5076248;28;19937;-77
2021/03/14 02:41:21;;;;;;;;;;;;;;;;;;5075493;28;20305;-76
2021/03/14 02:43:48;;;;;;;;;;;;;;;;;;5076576;28;19971;-77
2021/03/14 02:46:14;;;;;;;;;;;;;;;;;;5075655;28;19929;-76
2021/03/14 02:48:41;;;;;;;;;;;;;;;;;;5076908;28;19924;-77
2021/03/14 02:51:08;;;;;;;;;;;;;;;;;;5078978;28;19932;-77
2021/03/14 02:53:34;;;;;;;;;;;;;;;;;;5079097;28;19928;-76
2021/03/14 02:56:01;;;;;;;;;;;;;;;;;;5080009;28;20385;-76
2021/03/14 02:58:28;;;;;;;;;;;;;;;;;;5078727;28;19924;-77
2021/03/14 03:00:54;;;;;;;;;;;;;;;;;;5079772;28;19929;-76
2021/03/14 03:03:21;;;;;;;;;;;;;;;;;;5077849;28;19925;-77
2021/03/14 03:05:48;;;;;;;;;;;;;;;;;;5065161;28;19924;-76
2021/03/14 03:08:14;;;;;;;;;;;;;;;;;;5076588;28;19984;-77
2021/03/14 03:10:41;;;;;;;;;;;;;;;;;;5076452;28;19925;-77
2021/03/14 03:13:11;;;;;;;;;;;;;;;;;;5076015;28;19933;-77
2021/03/14 03:15:37;;;;;;;;;;;;;;;;;;5076376;28;19931;-77
2021/03/14 03:18:04;;;;;;;;;;;;;;;;;;5081191;28;19924;-76
2021/03/14 03:20:30;;;;;;;;;;;;;;;;;;5083817;28;19931;-76
2021/03/14 03:22:57;;;;;;;;;;;;;;;;;;5085205;28;19925;-76
2021/03/14 03:25:24;;;;;;;;;;;;;;;;;;5082471;28;20011;-77
2021/03/14 03:27:51;;;;;;;;;;;;;;;;;;5084812;28;19931;-76
2021/03/14 03:30:17;;;;;;;;;;;;;;;;;;5083250;28;19929;-77
2021/03/14 03:32:44;;;;;;;;;;;;;;;;;;5063502;28;19929;-77
2021/03/14 03:35:13;;;;;;;;;;;;;;;;;;5079591;28;19970;-77
2021/03/14 03:37:40;;;;;;;;;;;;;;;;;;5079651;28;20003;-77
2021/03/14 03:40:06;;;;;;;;;;;;;;;;;;5079293;28;19932;-76
2021/03/14 03:42:33;;;;;;;;;;;;;;;;;;5079341;28;19932;-77
2021/03/14 03:45:00;;;;;;;;;;;;;;;;;;5077567;28;19924;-77
2021/03/14 03:47:26;;;;;;;;;;;;;;;;;;5077355;28;19924;-77
2021/03/14 03:49:56;;;;;;;;;;;;;;;;;;5079713;28;20282;-76
2021/03/14 03:57:47;;;;;;;;;;;;;;;;;;5081704;28;19925;-76
2021/03/14 04:00:15;;;;;;;;;;;;;;;;;;5082941;28;19924;-76
2021/03/14 04:02:42;;;;;;;;;;;;;;;;;;5077416;28;19928;-76
2021/03/14 04:05:08;;;;;;;;;;;;;;;;;;5077550;28;19924;-76
2021/03/14 04:07:35;;;;;;;;;;;;;;;;;;5077558;28;19928;-76
2021/03/14 04:10:01;;;;;;;;;;;;;;;;;;5079697;28;19925;-76
2021/03/14 04:12:28;;;;;;;;;;;;;;;;;;5077104;28;19924;-76
2021/03/14 04:14:55;;;;;;;;;;;;;;;;;;5058363;28;20294;-76
2021/03/14 04:17:21;;;;;;;;;;;;;;;;;;5076572;28;19925;-75
2021/03/14 04:19:48;;;;;;;;;;;;;;;;;;5076474;28;19947;-76
2021/03/14 04:22:18;;;;;;;;;;;;;;;;;;5076600;28;19935;-77
2021/03/14 04:24:45;;;;;;;;;;;;;;;;;;5059017;28;19924;-76
2021/03/14 04:27:14;;;;;;;;;;;;;;;;;;5076847;28;20310;-76
2021/03/14 04:29:40;;;;;;;;;;;;;;;;;;5075596;28;19924;-76
2021/03/14 04:32:07;;;;;;;;;;;;;;;;;;5058584;28;19930;-76
2021/03/14 04:34:34;;;;;;;;;;;;;;;;;;5076873;28;19967;-76
2021/03/14 04:37:00;;;;;;;;;;;;;;;;;;5078315;28;20005;-76
2021/03/14 04:39:27;;;;;;;;;;;;;;;;;;5059625;28;19925;-76
2021/03/14 04:41:54;;;;;;;;;;;;;;;;;;5077461;28;19928;-76
2021/03/14 04:44:21;;;;;;;;;;;;;;;;;;5075900;28;19932;-76
2021/03/14 04:46:47;;;;;;;;;;;;;;;;;;5075204;28;19928;-76
2021/03/14 04:49:14;;;;;;;;;;;;;;;;;;5077395;28;19924;-76
2021/03/14 04:51:40;;;;;;;;;;;;;;;;;;5075405;28;19936;-76
2021/03/14 04:54:07;;;;;;;;;;;;;;;;;;5075175;28;19925;-76
2021/03/14 04:56:34;;;;;;;;;;;;;;;;;;5075448;28;20384;-76
2021/03/14 04:59:03;;;;;;;;;;;;;;;;;;5077122;28;19925;-76
2021/03/14 05:01:30;;;;;;;;;;;;;;;;;;5077419;28;20342;-76
2021/03/14 05:03:56;;;;;;;;;;;;;;;;;;5076489;28;19924;-76
2021/03/14 05:06:23;;;;;;;;;;;;;;;;;;5076069;28;20275;-76
2021/03/14 05:08:50;;;;;;;;;;;;;;;;;;5075407;28;19986;-76
2021/03/14 05:11:17;;;;;;;;;;;;;;;;;;5075526;28;19955;-76
2021/03/14 05:13:43;;;;;;;;;;;;;;;;;;5075114;28;19924;-76
2021/03/14 05:16:10;;;;;;;;;;;;;;;;;;5075434;28;20259;-76
2021/03/14 05:18:36;;;;;;;;;;;;;;;;;;5074883;28;19925;-76
2021/03/14 05:21:04;;;;;;;;;;;;;;;;;;5075687;28;19925;-77
2021/03/14 05:23:31;;;;;;;;;;;;;;;;;;5075853;28;19946;-76
2021/03/14 05:25:57;;;;;;;;;;;;;;;;;;5075303;28;19924;-76
2021/03/14 05:28:24;;;;;;;;;;;;;;;;;;5075938;28;19925;-76
2021/03/14 05:30:52;;;;;;;;;;;;;;;;;;5074697;28;20436;-76
2021/03/14 05:33:18;;;;;;;;;;;;;;;;;;5075073;28;19925;-76
2021/03/14 05:35:45;;;;;;;;;;;;;;;;;;5074819;28;19928;-77
2021/03/14 05:38:12;;;;;;;;;;;;;;;;;;5074645;28;19925;-76
2021/03/14 05:40:38;;;;;;;;;;;;;;;;;;5074576;28;19928;-76
2021/03/14 05:43:05;;;;;;;;;;;;;;;;;;5075778;28;20374;-75
2021/03/14 05:45:31;;;;;;;;;;;;;;;;;;5074647;28;19978;-75
2021/03/14 05:47:58;;;;;;;;;;;;;;;;;;5075371;28;20350;-75
2021/03/14 05:50:26;;;;;;;;;;;;;;;;;;5057100;28;20348;-75
2021/03/14 05:52:52;;;;;;;;;;;;;;;;;;5056535;28;20046;-75
2021/03/14 05:55:19;;;;;;;;;;;;;;;;;;5074976;28;19932;-75
2021/03/14 05:57:46;;;;;;;;;;;;;;;;;;5074501;28;19925;-75
2021/03/14 06:00:13;;;;;;;;;;;;;;;;;;5074513;28;20359;-75
2021/03/14 06:02:40;;;;;;;;;;;;;;;;;;5073590;28;20366;-75
2021/03/14 06:05:07;;;;;;;;;;;;;;;;;;5073556;28;20370;-75
2021/03/14 06:07:34;;;;;;;;;;;;;;;;;;5073844;28;19970;-75
2021/03/14 06:10:00;;;;;;;;;;;;;;;;;;5073651;28;20298;-74
2021/03/14 06:12:27;;;;;;;;;;;;;;;;;;5073821;28;19924;-75
2021/03/14 06:14:54;;;;;;;;;;;;;;;;;;5073244;28;19931;-75
2021/03/14 06:17:20;;;;;;;;;;;;;;;;;;5073409;28;19931;-75
2021/03/14 06:19:47;;;;;;;;;;;;;;;;;;5073770;28;19932;-75
2021/03/14 06:22:13;;;;;;;;;;;;;;;;;;5073658;28;19925;-74
2021/03/14 06:24:40;;;;;;;;;;;;;;;;;;5055388;28;19924;-74
2021/03/14 06:27:07;;;;;;;;;;;;;;;;;;5073596;28;20344;-74
2021/03/14 06:29:34;;;;;;;;;;;;;;;;;;5073307;28;20286;-74
2021/03/14 06:32:00;;;;;;;;;;;;;;;;;;5073515;28;19993;-74
2021/03/14 06:34:27;;;;;;;;;;;;;;;;;;5073222;28;19964;-74
2021/03/14 06:36:53;;;;;;;;;;;;;;;;;;5072187;28;19928;-79
2021/03/14 06:39:20;;;;;;;;;;;;;;;;;;5073562;28;19928;-78
2021/03/14 06:41:47;;;;;;;;;;;;;;;;;;5073840;28;19925;-75
2021/03/14 06:44:13;;;;;;;;;;;;;;;;;;5073599;28;19948;-75
2021/03/14 06:46:40;;;;;;;;;;;;;;;;;;5073444;28;19970;-75
2021/03/14 06:49:07;;;;;;;;;;;;;;;;;;5073221;28;19932;-75
2021/03/14 06:51:33;;;;;;;;;;;;;;;;;;5073080;28;19928;-75
2021/03/14 06:54:00;;;;;;;;;;;;;;;;;;5076783;28;19925;-75
2021/03/14 06:56:26;;;;;;;;;;;;;;;;;;5076664;28;20431;-74
2021/03/14 06:58:53;;;;;;;;;;;;;;;;;;5077030;28;19924;-74
2021/03/14 07:01:20;;;;;;;;;;;;;;;;;;5077053;28;20374;-74
2021/03/14 07:03:47;;;;;;;;;;;;;;;;;;5077106;28;20427;-74
2021/03/14 07:06:14;;;;;;;;;;;;;;;;;;5077146;28;19990;-75
2021/03/14 07:08:40;;;;;;;;;;;;;;;;;;5077274;28;19931;-74
2021/03/14 07:11:07;;;;;;;;;;;;;;;;;;5077109;28;19924;-75
2021/03/14 07:13:34;;;;;;;;;;;;;;;;;;5076925;28;19924;-75
2021/03/14 07:16:00;;;;;;;;;;;;;;;;;;5077269;28;19978;-75
2021/03/14 07:18:27;;;;;;;;;;;;;;;;;;5077838;28;20377;-75
2021/03/14 07:20:54;;;;;;;;;;;;;;;;;;5076687;28;19924;-75
2021/03/14 07:23:20;;;;;;;;;;;;;;;;;;5077034;28;19925;-75
2021/03/14 07:25:47;;;;;;;;;;;;;;;;;;5077697;28;19925;-75
2021/03/14 07:28:13;;;;;;;;;;;;;;;;;;5077015;28;19931;-74
2021/03/14 07:30:40;;;;;;;;;;;;;;;;;;5077551;28;20052;-74
2021/03/14 07:33:07;;;;;;;;;;;;;;;;;;5076870;28;19925;-75
2021/03/14 07:35:33;;;;;;;;;;;;;;;;;;5076445;28;19924;-74
2021/03/14 07:38:00;;;;;;;;;;;;;;;;;;5076521;28;20362;-75
2021/03/14 07:40:28;;;;;;;;;;;;;;;;;;5076528;28;19970;-75
2021/03/14 07:42:54;;;;;;;;;;;;;;;;;;5076728;28;19979;-75
2021/03/14 07:45:21;;;;;;;;;;;;;;;;;;5076528;28;19925;-75
2021/03/14 07:47:47;;;;;;;;;;;;;;;;;;5076333;28;20363;-74
2021/03/14 07:50:14;;;;;;;;;;;;;;;;;;5076579;28;20282;-75
2021/03/14 07:52:41;;;;;;;;;;;;;;;;;;5076355;28;19924;-75
2021/03/14 07:55:07;;;;;;;;;;;;;;;;;;5076689;28;19924;-75
2021/03/14 07:57:34;;;;;;;;;;;;;;;;;;5076131;28;19951;-74
2021/03/14 08:00:01;;;;;;;;;;;;;;;;;;5076194;28;19925;-75
2021/03/14 08:02:28;;;;;;;;;;;;;;;;;;5076335;28;19924;-74
2021/03/14 08:04:55;;;;;;;;;;;;;;;;;;5075097;28;19970;-74
2021/03/14 08:07:21;;;;;;;;;;;;;;;;;;5075870;28;19924;-74
2021/03/14 08:09:48;;;;;;;;;;;;;;;;;;5075856;28;19924;-74
2021/03/14 08:12:15;;;;;;;;;;;;;;;;;;5075748;28;19925;-75
2021/03/14 08:14:42;;;;;;;;;;;;;;;;;;5075679;28;19950;-74
2021/03/14 08:17:08;;;;;;;;;;;;;;;;;;5076149;28;20369;-74
2021/03/14 08:19:35;;;;;;;;;;;;;;;;;;5076283;28;19935;-75
2021/03/14 08:22:02;;;;;;;;;;;;;;;;;;5075920;28;19924;-75
2021/03/14 08:24:28;;;;;;;;;;;;;;;;;;5075925;28;19964;-74
2021/03/14 08:26:55;;;;;;;;;;;;;;;;;;5075426;28;20384;-75
2021/03/14 08:29:21;;;;;;;;;;;;;;;;;;5075613;28;19924;-74
2021/03/14 08:31:48;;;;;;;;;;;;;;;;;;5075730;28;19924;-75
2021/03/14 08:34:15;;;;;;;;;;;;;;;;;;5076473;28;19970;-75
2021/03/14 08:36:41;;;;;;;;;;;;;;;;;;5075627;28;20410;-75
2021/03/14 08:39:08;;;;;;;;;;;;;;;;;;5075336;28;19924;-75
2021/03/14 08:41:40;;;;;;;;;;;;;;;;;;5075557;28;19924;-75
2021/03/14 08:44:06;;;;;;;;;;;;;;;;;;5075497;28;19924;-75
2021/03/14 08:46:33;;;;;;;;;;;;;;;;;;5075211;28;19931;-74
2021/03/14 08:49:00;;;;;;;;;;;;;;;;;;5075119;28;19924;-74
2021/03/14 08:51:26;;;;;;;;;;;;;;;;;;5075661;28;19925;-75
2021/03/14 08:53:53;;;;;;;;;;;;;;;;;;5075190;28;19985;-75
2021/03/14 08:56:19;;;;;;;;;;;;;;;;;;5075060;28;20337;-75
2021/03/14 08:58:46;;;;;;;;;;;;;;;;;;5074899;28;19943;-75
2021/03/14 09:01:13;;;;;;;;;;;;;;;;;;5074779;28;19925;-75
2021/03/14 09:03:40;;;;;;;;;;;;;;;;;;5074848;28;19925;-74
2021/03/14 09:06:06;;;;;;;;;;;;;;;;;;5075453;28;19968;-75
2021/03/14 09:08:35;;;;;;;;;;;;;;;;;;5074950;28;19928;-75
2021/03/14 09:11:02;;;;;;;;;;;;;;;;;;5075164;28;19925;-75
2021/03/14 09:13:28;;;;;;;;;;;;;;;;;;5074518;28;19963;-74
2021/03/14 09:15:55;;;;;;;;;;;;;;;;;;5056525;28;19936;-74
2021/03/14 09:18:21;;;;;;;;;;;;;;;;;;5074986;28;19931;-75
2021/03/14 09:20:48;;;;;;;;;;;;;;;;;;5074903;28;20394;-75
2021/03/14 09:23:15;;;;;;;;;;;;;;;;;;5075406;28;19932;-74
2021/03/14 09:25:41;;;;;;;;;;;;;;;;;;5075144;28;19924;-74
2021/03/14 09:28:08;;;;;;;;;;;;;;;;;;5075096;28;19925;-74
2021/03/14 09:30:35;;;;;;;;;;;;;;;;;;5074851;28;19924;-74
2021/03/14 09:33:01;;;;;;;;;;;;;;;;;;5074952;28;19925;-74
2021/03/14 09:35:28;;;;;;;;;;;;;;;;;;5074500;28;19979;-74
2021/03/14 09:37:55;;;;;;;;;;;;;;;;;;5075394;28;19978;-75
2021/03/14 09:40:21;;;;;;;;;;;;;;;;;;5074696;28;19932;-75
2021/03/14 09:42:48;;;;;;;;;;;;;;;;;;5075151;28;19972;-74
2021/03/14 09:45:16;;;;;;;;;;;;;;;;;;5074784;28;19932;-74
2021/03/14 09:47:43;;;;;;;;;;;;;;;;;;5074589;28;19928;-74
2021/03/14 09:50:11;;;;;;;;;;;;;;;;;;5074684;28;19968;-74
2021/03/14 09:52:38;;;;;;;;;;;;;;;;;;5074213;28;19977;-74
2021/03/14 09:55:04;;;;;;;;;;;;;;;;;;5074889;28;19964;-74
2021/03/14 09:57:32;;;;;;;;;;;;;;;;;;5073970;28;20345;-73
2021/03/14 09:59:59;;;;;;;;;;;;;;;;;;5073909;28;19931;-74
2021/03/14 10:02:25;;;;;;;;;;;;;;;;;;5074700;28;20049;-73
2021/03/14 10:04:52;;;;;;;;;;;;;;;;;;5074513;28;19928;-74
2021/03/14 10:07:18;;;;;;;;;;;;;;;;;;5074427;28;19950;-74
2021/03/14 10:09:45;;;;;;;;;;;;;;;;;;5068021;28;19933;-73
2021/03/14 10:12:12;;;;;;;;;;;;;;;;;;5054524;28;19932;-74
2021/03/14 10:14:38;;;;;;;;;;;;;;;;;;5054789;28;20023;-73
2021/03/14 10:17:05;;;;;;;;;;;;;;;;;;5062551;28;19929;-73
2021/03/14 10:19:32;;;;;;;;;;;;;;;;;;5061411;28;19931;-74
2021/03/14 10:21:58;;;;;;;;;;;;;;;;;;5063630;28;19925;-73
2021/03/14 10:24:25;;;;;;;;;;;;;;;;;;5061481;28;19928;-73
2021/03/14 10:26:53;;;;;;;;;;;;;;;;;;5068802;28;19936;-72
2021/03/14 10:29:20;;;;;;;;;;;;;;;;;;5077887;28;19924;-73
2021/03/14 10:31:48;;;;;;;;;;;;;;;;;;5077911;28;20270;-73
2021/03/14 10:34:16;;;;;;;;;;;;;;;;;;5077986;28;19928;-73
2021/03/14 10:36:43;;;;;;;;;;;;;;;;;;5077837;28;19925;-73
2021/03/14 10:39:10;;;;;;;;;;;;;;;;;;5078199;28;19925;-74
2021/03/14 10:41:36;;;;;;;;;;;;;;;;;;5079723;28;19932;-74
2021/03/14 10:44:03;;;;;;;;;;;;;;;;;;5078854;28;20287;-81
2021/03/14 10:46:32;;;;;;;;;;;;;;;;;;5078985;28;20370;-74
2021/03/14 10:48:59;;;;;;;;;;;;;;;;;;5078270;28;19978;-74
2021/03/14 10:51:25;;;;;;;;;;;;;;;;;;5072614;28;19937;-75
2021/03/14 10:53:52;;;;;;;;;;;;;;;;;;5057685;28;20299;-75
2021/03/14 10:56:19;;;;;;;;;;;;;;;;;;5057707;28;19974;-75
2021/03/14 10:58:45;;;;;;;;;;;;;;;;;;5057073;28;19929;-74
2021/03/14 11:01:15;;;;;;;;;;;;;;;;;;5057305;28;19925;-75
2021/03/14 11:03:42;;;;;;;;;;;;;;;;;;5057129;28;20354;-74
2021/03/14 11:06:09;;;;;;;;;;;;;;;;;;5057655;28;19971;-75
2021/03/14 11:08:36;;;;;;;;;;;;;;;;;;5057448;28;19936;-75
2021/03/14 11:11:04;;;;;;;;;;;;;;;;;;5057259;28;20318;-74
2021/03/14 11:13:30;;;;;;;;;;;;;;;;;;5056498;28;20325;-75
2021/03/14 11:15:57;;;;;;;;;;;;;;;;;;5057301;28;20279;-75
2021/03/14 11:18:24;;;;;;;;;;;;;;;;;;5057254;28;20283;-74
2021/03/14 11:20:50;;;;;;;;;;;;;;;;;;5057007;28;19939;-75
2021/03/14 11:23:17;;;;;;;;;;;;;;;;;;5057014;28;20298;-75
2021/03/14 11:25:44;;;;;;;;;;;;;;;;;;5056887;28;19925;-75
2021/03/14 11:28:10;;;;;;;;;;;;;;;;;;5056834;28;20357;-75
2021/03/14 11:30:44;;;;;;;;;;;;;;;;;;5056647;28;19925;-74
2021/03/14 11:33:11;;;;;;;;;;;;;;;;;;5056867;28;19959;-75
2021/03/14 11:35:38;;;;;;;;;;;;;;;;;;5056255;28;19924;-74
2021/03/14 11:38:05;;;;;;;;;;;;;;;;;;5057181;28;20367;-75
2021/03/14 11:40:31;;;;;;;;;;;;;;;;;;5057666;28;19932;-74
2021/03/14 11:42:58;;;;;;;;;;;;;;;;;;5058182;28;19929;-75
2021/03/14 11:45:25;;;;;;;;;;;;;;;;;;5057410;28;19925;-75
2021/03/14 11:47:51;;;;;;;;;;;;;;;;;;5057934;28;20082;-76
2021/03/14 11:50:18;;;;;;;;;;;;;;;;;;5056607;28;19987;-75
2021/03/14 11:52:46;;;;;;;;;;;;;;;;;;5056212;28;19925;-75
2021/03/14 11:55:13;;;;;;;;;;;;;;;;;;5056361;28;19925;-75
2021/03/14 11:57:42;;;;;;;;;;;;;;;;;;5055995;28;20289;-75
2021/03/14 12:00:08;;;;;;;;;;;;;;;;;;5055934;28;19925;-75
2021/03/14 12:02:35;;;;;;;;;;;;;;;;;;5038436;28;20015;-75
2021/03/14 12:05:02;;;;;;;;;;;;;;;;;;5055695;28;19925;-75
2021/03/14 12:07:28;;;;;;;;;;;;;;;;;;5056107;28;19932;-75
2021/03/14 12:09:55;;;;;;;;;;;;;;;;;;5055881;28;19979;-75
2021/03/14 12:12:22;;;;;;;;;;;;;;;;;;5037742;28;19931;-74
2021/03/14 12:14:48;;;;;;;;;;;;;;;;;;5055592;28;19947;-74
2021/03/14 12:17:15;;;;;;;;;;;;;;;;;;5055906;28;19925;-75
2021/03/14 12:19:42;;;;;;;;;;;;;;;;;;5055901;28;19925;-75
2021/03/14 12:22:09;;;;;;;;;;;;;;;;;;5038312;28;19925;-75
2021/03/14 12:24:36;;;;;;;;;;;;;;;;;;5055786;28;19929;-75
2021/03/14 12:27:02;;;;;;;;;;;;;;;;;;5055935;28;20035;-75
2021/03/14 12:29:29;;;;;;;;;;;;;;;;;;5055848;28;19932;-75
2021/03/14 12:31:56;;;;;;;;;;;;;;;;;;5055921;28;19982;-75
2021/03/14 12:34:23;;;;;;;;;;;;;;;;;;5056218;28;19924;-75
2021/03/14 12:36:49;;;;;;;;;;;;;;;;;;5055965;28;19932;-75
2021/03/14 12:39:16;;;;;;;;;;;;;;;;;;5055523;28;19928;-75
2021/03/14 12:41:43;;;;;;;;;;;;;;;;;;5055196;28;20020;-75
2021/03/14 12:44:09;;;;;;;;;;;;;;;;;;5055370;28;19931;-74
2021/03/14 12:46:36;;;;;;;;;;;;;;;;;;5055926;28;19975;-74
2021/03/14 12:49:02;;;;;;;;;;;;;;;;;;5055460;28;19925;-75
2021/03/14 12:51:29;;;;;;;;;;;;;;;;;;5055304;28;19948;-76
2021/03/14 12:53:56;;;;;;;;;;;;;;;;;;5055893;28;19929;-75
2021/03/14 12:56:24;;;;;;;;;;;;;;;;;;5055768;28;19971;-75
2021/03/14 12:58:51;;;;;;;;;;;;;;;;;;5038027;28;20264;-75
2021/03/14 13:01:17;;;;;;;;;;;;;;;;;;5055797;28;20371;-75
2021/03/14 13:03:44;;;;;;;;;;;;;;;;;;5038286;28;19925;-75
2021/03/14 13:06:11;;;;;;;;;;;;;;;;;;5055780;28;19925;-75
2021/03/14 13:08:37;;;;;;;;;;;;;;;;;;5055474;28;19925;-76
2021/03/14 13:11:04;;;;;;;;;;;;;;;;;;5055926;28;19925;-76
2021/03/14 13:13:31;;;;;;;;;;;;;;;;;;5037250;28;19925;-75
2021/03/14 13:15:57;;;;;;;;;;;;;;;;;;5055251;28;19924;-75
2021/03/14 13:18:24;;;;;;;;;;;;;;;;;;5055288;28;19924;-75
2021/03/14 13:20:51;;;;;;;;;;;;;;;;;;5055141;28;19978;-75
2021/03/14 13:23:18;;;;;;;;;;;;;;;;;;5054781;28;20011;-75
2021/03/14 13:25:44;;;;;;;;;;;;;;;;;;5055261;28;19924;-75
2021/03/14 13:28:11;;;;;;;;;;;;;;;;;;5054575;28;19931;-75
2021/03/14 13:30:37;;;;;;;;;;;;;;;;;;5054701;28;20409;-75
2021/03/14 13:33:04;;;;;;;;;;;;;;;;;;5054729;28;19924;-75
2021/03/14 13:35:31;;;;;;;;;;;;;;;;;;5054639;28;19925;-75
2021/03/14 13:37:57;;;;;;;;;;;;;;;;;;5054667;28;19931;-75
2021/03/14 13:40:26;;;;;;;;;;;;;;;;;;5054404;28;19924;-74
2021/03/14 13:42:54;;;;;;;;;;;;;;;;;;5037224;28;19948;-75
2021/03/14 13:45:21;;;;;;;;;;;;;;;;;;5054515;28;19970;-75
2021/03/14 13:47:48;;;;;;;;;;;;;;;;;;5054544;28;20366;-75
2021/03/14 13:50:14;;;;;;;;;;;;;;;;;;5054682;28;19925;-75
2021/03/14 13:52:41;;;;;;;;;;;;;;;;;;5054555;28;19971;-75
2021/03/14 13:55:08;;;;;;;;;;;;;;;;;;5037649;28;20011;-74
2021/03/14 13:57:35;;;;;;;;;;;;;;;;;;5062677;28;19951;-74
2021/03/14 14:00:03;;;;;;;;;;;;;;;;;;5044767;28;19972;-74
2021/03/14 14:02:30;;;;;;;;;;;;;;;;;;5063953;28;19925;-74
2021/03/14 14:04:57;;;;;;;;;;;;;;;;;;5062480;28;19927;-74
2021/03/14 14:07:23;;;;;;;;;;;;;;;;;;5065839;28;19970;-74
2021/03/14 14:09:53;;;;;;;;;;;;;;;;;;5065168;28;19925;-74
2021/03/14 14:12:20;;;;;;;;;;;;;;;;;;5062508;28;19924;-74
2021/03/14 14:14:47;;;;;;;;;;;;;;;;;;5064607;28;19929;-74
2021/03/14 14:17:13;;;;;;;;;;;;;;;;;;5058120;28;19948;-75
2021/03/14 14:19:40;;;;;;;;;;;;;;;;;;5061757;28;19931;-74
2021/03/14 14:22:09;;;;;;;;;;;;;;;;;;5054161;28;19971;-75
2021/03/14 14:24:37;;;;;;;;;;;;;;;;;;5054072;28;20023;-74
2021/03/14 14:27:04;;;;;;;;;;;;;;;;;;5053739;28;20363;-75
2021/03/14 14:29:30;;;;;;;;;;;;;;;;;;5054960;28;19979;-74
2021/03/14 14:31:59;;;;;;;;;;;;;;;;;;5052071;28;20442;-75
2021/03/14 14:34:27;;;;;;;;;;;;;;;;;;5055002;28;19935;-77
2021/03/14 14:36:53;;;;;;;;;;;;;;;;;;5054370;28;20367;-77
2021/03/14 14:39:20;;;;;;;;;;;;;;;;;;5054044;28;19971;-74
2021/03/14 14:41:46;;;;;;;;;;;;;;;;;;5053662;28;19938;-75
2021/03/14 14:44:14;;;;;;;;;;;;;;;;;;5054297;28;20004;-78
2021/03/14 14:46:43;;;;;;;;;;;;;;;;;;5055005;28;19924;-76
2021/03/14 14:49:11;;;;;;;;;;;;;;;;;;5054150;28;19925;-78
2021/03/14 14:51:38;;;;;;;;;;;;;;;;;;5056263;28;19925;-79
2021/03/14 14:54:05;;;;;;;;;;;;;;;;;;5057102;28;19925;-79
2021/03/14 14:56:31;;;;;;;;;;;;;;;;;;5056198;28;20343;-77
2021/03/14 14:58:58;;;;;;;;;;;;;;;;;;5053786;28;19982;-76
2021/03/14 15:01:24;;;;;;;;;;;;;;;;;;5053918;28;19925;-77
2021/03/14 15:03:51;;;;;;;;;;;;;;;;;;5054239;28;19925;-79
2021/03/14 15:06:18;;;;;;;;;;;;;;;;;;5053557;28;19924;-77
2021/03/14 15:08:44;;;;;;;;;;;;;;;;;;5053900;28;19932;-77
2021/03/14 15:11:11;;;;;;;;;;;;;;;;;;5055485;28;19929;-78
2021/03/14 15:13:37;;;;;;;;;;;;;;;;;;5056167;28;19925;-73
2021/03/14 15:16:04;;;;;;;;;;;;;;;;;;5039759;28;19971;-74
2021/03/14 15:18:31;;;;;;;;;;;;;;;;;;5057511;28;19925;-73
2021/03/14 15:21:04;;;;;;;;;;;;;;;;;;5057834;28;20000;-73
2021/03/14 15:23:32;;;;;;;;;;;;;;;;;;5057269;28;19932;-73
2021/03/14 15:26:01;;;;;;;;;;;;;;;;;;5055598;28;19931;-77
2021/03/14 15:28:30;;;;;;;;;;;;;;;;;;5059742;28;20279;-82
2021/03/14 15:31:04;;;;;;;;;;;;;;;;;;5057556;28;20008;-74
2021/03/14 15:33:32;;;;;;;;;;;;;;;;;;5057469;28;19925;-77
2021/03/14 15:36:00;;;;;;;;;;;;;;;;;;5057690;28;19925;-77
2021/03/14 15:38:34;;;;;;;;;;;;;;;;;;5058598;28;19979;-78
2021/03/14 15:41:00;;;;;;;;;;;;;;;;;;5057273;28;20397;-80
2021/03/14 15:43:27;;;;;;;;;;;;;;;;;;5058806;28;20312;-78
2021/03/14 15:45:56;;;;;;;;;;;;;;;;;;5058371;28;20374;-76
2021/03/14 15:48:23;;;;;;;;;;;;;;;;;;5057586;28;19931;-75
2021/03/14 15:50:49;;;;;;;;;;;;;;;;;;5056619;28;19925;-76
2021/03/14 15:53:16;;;;;;;;;;;;;;;;;;5056683;28;19935;-78
2021/03/14 15:55:42;;;;;;;;;;;;;;;;;;5057145;28;19924;-78
2021/03/14 15:58:09;;;;;;;;;;;;;;;;;;5056775;28;19925;-79
2021/03/14 16:00:36;;;;;;;;;;;;;;;;;;5056973;28;19975;-74
2021/03/14 16:03:03;;;;;;;;;;;;;;;;;;5057727;28;19931;-78
2021/03/14 16:05:29;;;;;;;;;;;;;;;;;;5058165;28;19925;-79
2021/03/14 16:07:56;;;;;;;;;;;;;;;;;;5057810;28;20267;-79
2021/03/14 16:10:23;;;;;;;;;;;;;;;;;;5056763;28;19924;-79
2021/03/14 16:12:49;;;;;;;;;;;;;;;;;;5057200;28;19925;-79
2021/03/14 16:15:16;;;;;;;;;;;;;;;;;;5056862;28;20337;-80
2021/03/14 16:17:43;;;;;;;;;;;;;;;;;;5057835;28;19978;-80
2021/03/14 16:20:09;;;;;;;;;;;;;;;;;;5057239;28;20011;-79
2021/03/14 16:22:36;;;;;;;;;;;;;;;;;;5056767;28;19928;-77
2021/03/14 16:25:03;;;;;;;;;;;;;;;;;;5056225;28;19924;-79
2021/03/14 16:27:29;;;;;;;;;;;;;;;;;;5057461;28;19925;-79
2021/03/14 16:29:56;;;;;;;;;;;;;;;;;;5056844;28;19931;-77
2021/03/14 16:32:22;;;;;;;;;;;;;;;;;;5056829;28;19925;-80
2021/03/14 16:34:49;;;;;;;;;;;;;;;;;;5056391;28;19925;-79
2021/03/14 16:37:16;;;;;;;;;;;;;;;;;;5057103;28;19925;-78
2021/03/14 16:39:42;;;;;;;;;;;;;;;;;;5056706;28;20496;-77
2021/03/14 16:42:09;;;;;;;;;;;;;;;;;;5058762;28;19924;-78
2021/03/14 16:44:36;;;;;;;;;;;;;;;;;;5058156;28;19932;-79
2021/03/14 16:47:04;;;;;;;;;;;;;;;;;;5059171;28;20383;-79
2021/03/14 16:49:31;;;;;;;;;;;;;;;;;;5060142;28;20268;-80
2021/03/14 16:51:57;;;;;;;;;;;;;;;;;;5056063;28;19971;-76